sensor_id;sensor_type;location;lat;lon;timestamp;temperature;humidity
65396;HTU21D;52004;45.136;39.010;2024-03-02T00:01:49;3.80;51.66
65396;HTU21D;52004;45.136;39.010;2024-03-02T00:04:15;3.76;51.68
65396;HTU21D;52004;45.136;39.010;2024-03-02T00:06:42;3.70;51.66
65396;HTU21D;52004;45.136;39.010;2024-03-02T00:09:08;3.60;51.74
65396;HTU21D;52004;45.136;39.010;2024-03-02T00:11:34;3.55;51.78
65396;HTU21D;52004;45.136;39.010;2024-03-02T00:14:01;3.50;51.80
65396;HTU21D;52004;45.136;39.010;2024-03-02T00:16:30;3.48;51.82
65396;HTU21D;52004;45.136;39.010;2024-03-02T00:19:01;3.43;51.85
65396;HTU21D;52004;45.136;39.010;2024-03-02T00:21:27;3.40;51.86
65396;HTU21D;52004;45.136;39.010;2024-03-02T00:23:53;0.00;51.85
65396;HTU21D;52004;45.136;39.010;2024-03-02T00:26:19;3.29;51.87
65396;HTU21D;52004;45.136;39.010;2024-03-02T00:28:45;3.24;51.94
65396;HTU21D;52004;45.136;39.010;2024-03-02T00:31:11;3.17;51.98
65396;HTU21D;52004;45.136;39.010;2024-03-02T00:33:41;3.13;52.08
65396;HTU21D;52004;45.136;39.010;2024-03-02T00:36:08;3.11;52.16
65396;HTU21D;52004;45.136;39.010;2024-03-02T00:38:34;3.10;52.17
65396;HTU21D;52004;45.136;39.010;2024-03-02T00:41:04;3.09;52.17
65396;HTU21D;52004;45.136;39.010;2024-03-02T00:46:06;3.03;52.18
65396;HTU21D;52004;45.136;39.010;2024-03-02T00:48:31;3.01;52.18
65396;HTU21D;52004;45.136;39.010;2024-03-02T00:51:01;2.98;52.20
65396;HTU21D;52004;45.136;39.010;2024-03-02T00:53:29;2.97;52.22
65396;HTU21D;52004;45.136;39.010;2024-03-02T00:55:55;2.97;52.20
65396;HTU21D;52004;45.136;39.010;2024-03-02T00:58:21;2.96;52.19
65396;HTU21D;52004;45.136;39.010;2024-03-02T01:00:47;2.95;52.19
65396;HTU21D;52004;45.136;39.010;2024-03-02T01:03:13;2.93;52.22
65396;HTU21D;52004;45.136;39.010;2024-03-02T01:05:42;2.90;52.26
65396;HTU21D;52004;45.136;39.010;2024-03-02T01:08:09;2.91;52.28
65396;HTU21D;52004;45.136;39.010;2024-03-02T01:10:34;2.90;52.26
65396;HTU21D;52004;45.136;39.010;2024-03-02T01:13:00;2.90;52.24
65396;HTU21D;52004;45.136;39.010;2024-03-02T01:15:27;2.89;52.24
65396;HTU21D;52004;45.136;39.010;2024-03-02T01:17:53;2.90;52.26
65396;HTU21D;52004;45.136;39.010;2024-03-02T01:20:19;2.90;52.24
65396;HTU21D;52004;45.136;39.010;2024-03-02T01:22:46;2.90;52.23
65396;HTU21D;52004;45.136;39.010;2024-03-02T01:25:13;2.87;52.23
65396;HTU21D;52004;45.136;39.010;2024-03-02T01:27:39;2.86;52.26
65396;HTU21D;52004;45.136;39.010;2024-03-02T01:30:05;2.83;52.30
65396;HTU21D;52004;45.136;39.010;2024-03-02T01:32:31;2.81;52.33
65396;HTU21D;52004;45.136;39.010;2024-03-02T01:34:57;2.80;52.35
65396;HTU21D;52004;45.136;39.010;2024-03-02T01:37:23;2.78;52.36
65396;HTU21D;52004;45.136;39.010;2024-03-02T01:39:49;2.75;52.38
65396;HTU21D;52004;45.136;39.010;2024-03-02T01:42:15;2.73;52.41
65396;HTU21D;52004;45.136;39.010;2024-03-02T01:44:41;2.71;52.43
65396;HTU21D;52004;45.136;39.010;2024-03-02T01:47:07;2.68;52.49
65396;HTU21D;52004;45.136;39.010;2024-03-02T01:49:33;2.67;52.51
65396;HTU21D;52004;45.136;39.010;2024-03-02T01:51:59;2.65;52.52
65396;HTU21D;52004;45.136;39.010;2024-03-02T01:54:25;2.60;52.52
65396;HTU21D;52004;45.136;39.010;2024-03-02T01:56:51;2.57;52.57
65396;HTU21D;52004;45.136;39.010;2024-03-02T01:59:17;2.54;52.61
65396;HTU21D;52004;45.136;39.010;2024-03-02T02:01:43;2.52;52.63
65396;HTU21D;52004;45.136;39.010;2024-03-02T02:04:09;2.49;52.65
65396;HTU21D;52004;45.136;39.010;2024-03-02T02:06:35;2.46;52.69
65396;HTU21D;52004;45.136;39.010;2024-03-02T02:09:01;2.43;52.69
65396;HTU21D;52004;45.136;39.010;2024-03-02T02:11:27;2.39;52.70
65396;HTU21D;52004;45.136;39.010;2024-03-02T02:13:53;2.37;52.74
65396;HTU21D;52004;45.136;39.010;2024-03-02T02:16:21;2.35;52.78
65396;HTU21D;52004;45.136;39.010;2024-03-02T02:18:47;2.31;52.82
65396;HTU21D;52004;45.136;39.010;2024-03-02T02:21:13;2.30;52.81
65396;HTU21D;52004;45.136;39.010;2024-03-02T02:23:39;2.27;52.81
65396;HTU21D;52004;45.136;39.010;2024-03-02T02:26:04;2.25;52.81
65396;HTU21D;52004;45.136;39.010;2024-03-02T02:28:30;2.24;52.83
65396;HTU21D;52004;45.136;39.010;2024-03-02T02:30:57;2.23;52.85
65396;HTU21D;52004;45.136;39.010;2024-03-02T02:33:23;0.00;52.87
65396;HTU21D;52004;45.136;39.010;2024-03-02T02:35:49;2.21;52.92
65396;HTU21D;52004;45.136;39.010;2024-03-02T02:38:19;2.22;52.92
65396;HTU21D;52004;45.136;39.010;2024-03-02T02:40:45;2.22;52.94
65396;HTU21D;52004;45.136;39.010;2024-03-02T02:43:11;2.23;52.92
65396;HTU21D;52004;45.136;39.010;2024-03-02T02:45:37;2.21;52.94
65396;HTU21D;52004;45.136;39.010;2024-03-02T02:48:03;2.21;52.94
65396;HTU21D;52004;45.136;39.010;2024-03-02T02:50:29;2.20;52.93
65396;HTU21D;52004;45.136;39.010;2024-03-02T02:52:55;2.20;52.93
65396;HTU21D;52004;45.136;39.010;2024-03-02T02:55:21;2.20;52.94
65396;HTU21D;52004;45.136;39.010;2024-03-02T02:57:47;2.16;52.94
65396;HTU21D;52004;45.136;39.010;2024-03-02T03:00:13;2.13;52.96
65396;HTU21D;52004;45.136;39.010;2024-03-02T03:02:40;2.11;53.00
65396;HTU21D;52004;45.136;39.010;2024-03-02T03:05:08;2.10;52.99
65396;HTU21D;52004;45.136;39.010;2024-03-02T03:07:34;2.07;52.98
65396;HTU21D;52004;45.136;39.010;2024-03-02T03:10:02;2.06;53.00
65396;HTU21D;52004;45.136;39.010;2024-03-02T03:12:29;2.03;53.00
65396;HTU21D;52004;45.136;39.010;2024-03-02T03:14:55;2.00;53.02
65396;HTU21D;52004;45.136;39.010;2024-03-02T03:17:21;1.97;53.04
65396;HTU21D;52004;45.136;39.010;2024-03-02T03:19:47;1.96;53.04
65396;HTU21D;52004;45.136;39.010;2024-03-02T03:22:13;1.94;53.04
65396;HTU21D;52004;45.136;39.010;2024-03-02T03:24:39;1.93;53.04
65396;HTU21D;52004;45.136;39.010;2024-03-02T03:27:05;1.90;53.06
65396;HTU21D;52004;45.136;39.010;2024-03-02T03:29:31;1.88;53.07
65396;HTU21D;52004;45.136;39.010;2024-03-02T03:31:57;1.86;53.10
65396;HTU21D;52004;45.136;39.010;2024-03-02T03:34:23;1.83;53.13
65396;HTU21D;52004;45.136;39.010;2024-03-02T03:36:49;1.82;53.17
65396;HTU21D;52004;45.136;39.010;2024-03-02T03:39:15;1.82;53.18
65396;HTU21D;52004;45.136;39.010;2024-03-02T03:41:41;1.80;53.18
65396;HTU21D;52004;45.136;39.010;2024-03-02T03:44:07;1.79;53.20
65396;HTU21D;52004;45.136;39.010;2024-03-02T03:46:33;1.78;53.20
65396;HTU21D;52004;45.136;39.010;2024-03-02T03:48:59;1.75;53.22
65396;HTU21D;52004;45.136;39.010;2024-03-02T03:51:24;1.73;53.22
65396;HTU21D;52004;45.136;39.010;2024-03-02T03:53:50;1.70;53.26
65396;HTU21D;52004;45.136;39.010;2024-03-02T03:56:16;1.69;53.30
65396;HTU21D;52004;45.136;39.010;2024-03-02T03:58:42;1.68;53.33
65396;HTU21D;52004;45.136;39.010;2024-03-02T04:01:08;1.67;53.40
65396;HTU21D;52004;45.136;39.010;2024-03-02T04:03:35;1.67;53.42
65396;HTU21D;52004;45.136;39.010;2024-03-02T04:06:00;1.67;53.43
65396;HTU21D;52004;45.136;39.010;2024-03-02T04:08:26;1.69;53.47
65396;HTU21D;52004;45.136;39.010;2024-03-02T04:10:52;1.70;53.51
65396;HTU21D;52004;45.136;39.010;2024-03-02T04:13:18;1.71;53.53
65396;HTU21D;52004;45.136;39.010;2024-03-02T04:15:44;1.73;53.56
65396;HTU21D;52004;45.136;39.010;2024-03-02T04:18:10;1.73;53.58
65396;HTU21D;52004;45.136;39.010;2024-03-02T04:20:37;1.75;53.57
65396;HTU21D;52004;45.136;39.010;2024-03-02T04:23:05;1.77;53.57
65396;HTU21D;52004;45.136;39.010;2024-03-02T04:25:31;1.80;53.59
65396;HTU21D;52004;45.136;39.010;2024-03-02T04:27:57;1.83;53.59
65396;HTU21D;52004;45.136;39.010;2024-03-02T04:30:23;1.85;53.59
65396;HTU21D;52004;45.136;39.010;2024-03-02T04:32:50;1.87;53.63
65396;HTU21D;52004;45.136;39.010;2024-03-02T04:35:16;1.91;53.64
65396;HTU21D;52004;45.136;39.010;2024-03-02T04:37:42;1.93;53.65
65396;HTU21D;52004;45.136;39.010;2024-03-02T04:40:09;1.95;53.66
65396;HTU21D;52004;45.136;39.010;2024-03-02T04:42:36;1.98;53.70
65396;HTU21D;52004;45.136;39.010;2024-03-02T04:45:01;2.02;53.71
65396;HTU21D;52004;45.136;39.010;2024-03-02T04:47:29;2.08;53.71
65396;HTU21D;52004;45.136;39.010;2024-03-02T04:49:55;2.12;53.72
65396;HTU21D;52004;45.136;39.010;2024-03-02T04:52:21;2.14;53.78
65396;HTU21D;52004;45.136;39.010;2024-03-02T04:54:47;2.20;53.81
65396;HTU21D;52004;45.136;39.010;2024-03-02T04:57:31;2.27;53.90
65396;HTU21D;52004;45.136;39.010;2024-03-02T04:59:56;2.38;54.15
65396;HTU21D;52004;45.136;39.010;2024-03-02T05:02:22;0.00;54.47
65396;HTU21D;52004;45.136;39.010;2024-03-02T05:04:48;2.73;54.55
65396;HTU21D;52004;45.136;39.010;2024-03-02T05:07:14;2.96;54.44
65396;HTU21D;52004;45.136;39.010;2024-03-02T05:09:40;3.15;54.39
65396;HTU21D;52004;45.136;39.010;2024-03-02T05:12:06;3.40;54.36
65396;HTU21D;52004;45.136;39.010;2024-03-02T05:14:48;3.56;54.07
65396;HTU21D;52004;45.136;39.010;2024-03-02T05:17:15;3.69;54.05
65396;HTU21D;52004;45.136;39.010;2024-03-02T05:19:41;3.83;53.94
65396;HTU21D;52004;45.136;39.010;2024-03-02T05:22:07;3.87;53.74
65396;HTU21D;52004;45.136;39.010;2024-03-02T05:24:32;3.90;53.71
65396;HTU21D;52004;45.136;39.010;2024-03-02T05:26:58;4.00;53.88
65396;HTU21D;52004;45.136;39.010;2024-03-02T05:29:25;4.17;53.91
65396;HTU21D;52004;45.136;39.010;2024-03-02T05:31:51;4.32;53.97
65396;HTU21D;52004;45.136;39.010;2024-03-02T05:34:16;4.56;54.02
65396;HTU21D;52004;45.136;39.010;2024-03-02T05:36:42;4.81;53.97
65396;HTU21D;52004;45.136;39.010;2024-03-02T05:39:08;5.12;54.06
65396;HTU21D;52004;45.136;39.010;2024-03-02T05:41:35;5.47;54.10
65396;HTU21D;52004;45.136;39.010;2024-03-02T05:44:01;5.70;53.88
65396;HTU21D;52004;45.136;39.010;2024-03-02T05:46:27;5.79;53.56
65396;HTU21D;52004;45.136;39.010;2024-03-02T05:48:53;5.85;53.44
65396;HTU21D;52004;45.136;39.010;2024-03-02T05:51:19;5.92;53.43
65396;HTU21D;52004;45.136;39.010;2024-03-02T05:53:45;6.01;53.41
65396;HTU21D;52004;45.136;39.010;2024-03-02T05:56:11;6.11;53.46
65396;HTU21D;52004;45.136;39.010;2024-03-02T05:58:37;6.20;53.44
65396;HTU21D;52004;45.136;39.010;2024-03-02T06:01:22;6.22;53.21
65396;HTU21D;52004;45.136;39.010;2024-03-02T06:03:56;6.21;53.16
65396;HTU21D;52004;45.136;39.010;2024-03-02T06:06:24;6.25;53.31
65396;HTU21D;52004;45.136;39.010;2024-03-02T06:08:50;6.35;53.36
65396;HTU21D;52004;45.136;39.010;2024-03-02T06:11:17;6.45;53.42
65396;HTU21D;52004;45.136;39.010;2024-03-02T06:13:43;6.49;53.30
65396;HTU21D;52004;45.136;39.010;2024-03-02T06:16:09;6.54;53.36
65396;HTU21D;52004;45.136;39.010;2024-03-02T06:18:34;6.67;53.43
65396;HTU21D;52004;45.136;39.010;2024-03-02T06:21:00;6.82;53.54
65396;HTU21D;52004;45.136;39.010;2024-03-02T06:23:28;6.95;53.59
65396;HTU21D;52004;45.136;39.010;2024-03-02T06:25:54;0.00;53.67
65396;HTU21D;52004;45.136;39.010;2024-03-02T06:28:20;7.25;53.49
65396;HTU21D;52004;45.136;39.010;2024-03-02T06:30:46;7.27;53.29
65396;HTU21D;52004;45.136;39.010;2024-03-02T06:33:12;7.34;53.41
65396;HTU21D;52004;45.136;39.010;2024-03-02T06:35:38;7.44;53.36
65396;HTU21D;52004;45.136;39.010;2024-03-02T06:38:04;0.00;53.29
65396;HTU21D;52004;45.136;39.010;2024-03-02T06:40:30;7.67;53.58
65396;HTU21D;52004;45.136;39.010;2024-03-02T06:43:22;7.86;53.67
65396;HTU21D;52004;45.136;39.010;2024-03-02T06:45:49;7.96;53.36
65396;HTU21D;52004;45.136;39.010;2024-03-02T06:48:18;7.93;53.06
65396;HTU21D;52004;45.136;39.010;2024-03-02T06:50:49;7.86;53.00
65396;HTU21D;52004;45.136;39.010;2024-03-02T06:53:15;7.85;53.17
65396;HTU21D;52004;45.136;39.010;2024-03-02T06:55:45;7.87;53.19
65396;HTU21D;52004;45.136;39.010;2024-03-02T06:58:12;7.89;53.06
65396;HTU21D;52004;45.136;39.010;2024-03-02T07:00:38;7.84;52.92
65396;HTU21D;52004;45.136;39.010;2024-03-02T07:03:04;7.79;52.98
65396;HTU21D;52004;45.136;39.010;2024-03-02T07:05:30;7.81;53.14
65396;HTU21D;52004;45.136;39.010;2024-03-02T07:07:56;7.89;53.20
65396;HTU21D;52004;45.136;39.010;2024-03-02T07:10:22;7.94;53.30
65396;HTU21D;52004;45.136;39.010;2024-03-02T07:12:48;8.03;53.27
65396;HTU21D;52004;45.136;39.010;2024-03-02T07:15:14;8.16;53.38
65396;HTU21D;52004;45.136;39.010;2024-03-02T07:17:52;8.33;53.43
65396;HTU21D;52004;45.136;39.010;2024-03-02T07:20:18;8.47;53.43
65396;HTU21D;52004;45.136;39.010;2024-03-02T07:22:44;8.68;53.73
65396;HTU21D;52004;45.136;39.010;2024-03-02T07:25:11;8.94;53.79
65396;HTU21D;52004;45.136;39.010;2024-03-02T07:27:36;9.14;53.51
65396;HTU21D;52004;45.136;39.010;2024-03-02T07:30:03;9.26;53.38
65396;HTU21D;52004;45.136;39.010;2024-03-02T07:32:29;9.40;53.41
65396;HTU21D;52004;45.136;39.010;2024-03-02T07:34:55;9.53;53.35
65396;HTU21D;52004;45.136;39.010;2024-03-02T07:37:22;9.65;53.27
65396;HTU21D;52004;45.136;39.010;2024-03-02T07:39:48;9.77;53.30
65396;HTU21D;52004;45.136;39.010;2024-03-02T07:42:14;9.92;53.36
65396;HTU21D;52004;45.136;39.010;2024-03-02T07:44:40;10.13;53.88
65396;HTU21D;52004;45.136;39.010;2024-03-02T07:47:06;10.37;53.68
65396;HTU21D;52004;45.136;39.010;2024-03-02T07:49:32;10.52;53.25
65396;HTU21D;52004;45.136;39.010;2024-03-02T07:51:58;10.56;53.09
65396;HTU21D;52004;45.136;39.010;2024-03-02T07:54:24;10.63;53.12
65396;HTU21D;52004;45.136;39.010;2024-03-02T07:56:50;10.69;52.99
65396;HTU21D;52004;45.136;39.010;2024-03-02T07:59:16;10.73;52.88
65396;HTU21D;52004;45.136;39.010;2024-03-02T08:01:42;10.78;52.81
65396;HTU21D;52004;45.136;39.010;2024-03-02T08:04:07;10.86;53.05
65396;HTU21D;52004;45.136;39.010;2024-03-02T08:06:34;10.93;52.90
65396;HTU21D;52004;45.136;39.010;2024-03-02T08:09:00;10.96;52.60
65396;HTU21D;52004;45.136;39.010;2024-03-02T08:11:26;10.90;52.46
65396;HTU21D;52004;45.136;39.010;2024-03-02T08:13:56;10.89;52.45
65396;HTU21D;52004;45.136;39.010;2024-03-02T08:16:22;10.87;52.47
65396;HTU21D;52004;45.136;39.010;2024-03-02T08:18:49;10.84;52.20
65396;HTU21D;52004;45.136;39.010;2024-03-02T08:21:15;10.75;52.14
65396;HTU21D;52004;45.136;39.010;2024-03-02T08:23:42;10.70;52.25
65396;HTU21D;52004;45.136;39.010;2024-03-02T08:26:08;10.70;52.33
65396;HTU21D;52004;45.136;39.010;2024-03-02T08:28:34;10.75;52.50
65396;HTU21D;52004;45.136;39.010;2024-03-02T08:31:27;10.82;52.37
65396;HTU21D;52004;45.136;39.010;2024-03-02T08:33:53;10.79;52.09
65396;HTU21D;52004;45.136;39.010;2024-03-02T08:36:19;10.74;52.01
65396;HTU21D;52004;45.136;39.010;2024-03-02T08:38:45;10.70;52.04
65396;HTU21D;52004;45.136;39.010;2024-03-02T08:41:11;10.68;52.04
65396;HTU21D;52004;45.136;39.010;2024-03-02T08:43:40;10.71;52.43
65396;HTU21D;52004;45.136;39.010;2024-03-02T08:46:06;10.82;52.49
65396;HTU21D;52004;45.136;39.010;2024-03-02T08:48:32;10.93;52.37
65396;HTU21D;52004;45.136;39.010;2024-03-02T08:50:58;11.01;52.37
65396;HTU21D;52004;45.136;39.010;2024-03-02T08:53:24;11.11;52.44
65396;HTU21D;52004;45.136;39.010;2024-03-02T08:55:50;11.24;52.52
65396;HTU21D;52004;45.136;39.010;2024-03-02T08:58:16;11.39;52.76
65396;HTU21D;52004;45.136;39.010;2024-03-02T09:00:42;11.52;52.53
65396;HTU21D;52004;45.136;39.010;2024-03-02T09:03:08;11.60;52.30
65396;HTU21D;52004;45.136;39.010;2024-03-02T09:05:34;11.66;52.35
65396;HTU21D;52004;45.136;39.010;2024-03-02T09:08:00;11.78;52.49
65396;HTU21D;52004;45.136;39.010;2024-03-02T09:10:26;11.90;52.54
65396;HTU21D;52004;45.136;39.010;2024-03-02T09:12:52;12.02;52.46
65396;HTU21D;52004;45.136;39.010;2024-03-02T09:15:18;12.16;52.48
65396;HTU21D;52004;45.136;39.010;2024-03-02T09:17:44;12.28;52.56
65396;HTU21D;52004;45.136;39.010;2024-03-02T09:20:10;12.43;52.50
65396;HTU21D;52004;45.136;39.010;2024-03-02T09:22:36;12.62;52.96
65396;HTU21D;52004;45.136;39.010;2024-03-02T09:25:02;12.88;53.10
65396;HTU21D;52004;45.136;39.010;2024-03-02T09:27:28;13.11;52.77
65396;HTU21D;52004;45.136;39.010;2024-03-02T09:29:54;13.24;52.58
65396;HTU21D;52004;45.136;39.010;2024-03-02T09:32:20;13.37;52.33
65396;HTU21D;52004;45.136;39.010;2024-03-02T09:34:46;13.49;52.33
65396;HTU21D;52004;45.136;39.010;2024-03-02T09:37:13;13.56;52.19
65396;HTU21D;52004;45.136;39.010;2024-03-02T09:39:39;13.64;52.05
65396;HTU21D;52004;45.136;39.010;2024-03-02T09:42:05;13.65;51.69
65396;HTU21D;52004;45.136;39.010;2024-03-02T09:44:31;13.61;51.62
65396;HTU21D;52004;45.136;39.010;2024-03-02T09:46:57;13.58;51.48
65396;HTU21D;52004;45.136;39.010;2024-03-02T09:49:23;13.55;51.53
65396;HTU21D;52004;45.136;39.010;2024-03-02T09:51:49;0.00;51.62
65396;HTU21D;52004;45.136;39.010;2024-03-02T09:54:16;13.59;51.54
65396;HTU21D;52004;45.136;39.010;2024-03-02T09:56:42;13.59;51.61
65396;HTU21D;52004;45.136;39.010;2024-03-02T09:59:08;13.68;52.01
65396;HTU21D;52004;45.136;39.010;2024-03-02T10:01:34;13.94;52.45
65396;HTU21D;52004;45.136;39.010;2024-03-02T10:04:00;14.19;52.53
65396;HTU21D;52004;45.136;39.010;2024-03-02T10:06:26;14.45;52.54
65396;HTU21D;52004;45.136;39.010;2024-03-02T10:08:53;14.69;52.33
65396;HTU21D;52004;45.136;39.010;2024-03-02T10:11:33;14.81;51.52
65396;HTU21D;52004;45.136;39.010;2024-03-02T10:14:10;14.78;51.30
65396;HTU21D;52004;45.136;39.010;2024-03-02T10:16:38;14.71;50.95
65396;HTU21D;52004;45.136;39.010;2024-03-02T10:19:16;14.60;50.76
65396;HTU21D;52004;45.136;39.010;2024-03-02T10:21:44;14.52;50.85
65396;HTU21D;52004;45.136;39.010;2024-03-02T10:24:10;14.53;51.14
65396;HTU21D;52004;45.136;39.010;2024-03-02T10:26:36;14.65;51.40
65396;HTU21D;52004;45.136;39.010;2024-03-02T10:29:03;14.71;51.04
65396;HTU21D;52004;45.136;39.010;2024-03-02T10:31:29;14.74;50.72
65396;HTU21D;52004;45.136;39.010;2024-03-02T10:33:55;14.69;50.69
65396;HTU21D;52004;45.136;39.010;2024-03-02T10:36:21;14.77;51.02
65396;HTU21D;52004;45.136;39.010;2024-03-02T10:38:47;14.87;51.18
65396;HTU21D;52004;45.136;39.010;2024-03-02T10:41:17;15.02;51.34
65396;HTU21D;52004;45.136;39.010;2024-03-02T10:43:44;15.21;51.43
65396;HTU21D;52004;45.136;39.010;2024-03-02T10:46:10;15.40;51.57
65396;HTU21D;52004;45.136;39.010;2024-03-02T10:48:37;15.60;51.69
65396;HTU21D;52004;45.136;39.010;2024-03-02T10:51:04;15.86;51.64
65396;HTU21D;52004;45.136;39.010;2024-03-02T10:53:30;16.05;51.45
65396;HTU21D;52004;45.136;39.010;2024-03-02T10:55:57;16.19;51.18
65396;HTU21D;52004;45.136;39.010;2024-03-02T10:58:55;0.00;51.20
65396;HTU21D;52004;45.136;39.010;2024-03-02T11:01:23;16.42;50.72
65396;HTU21D;52004;45.136;39.010;2024-03-02T11:03:50;16.45;50.72
65396;HTU21D;52004;45.136;39.010;2024-03-02T11:06:16;16.57;50.70
65396;HTU21D;52004;45.136;39.010;2024-03-02T11:08:43;16.65;50.40
65396;HTU21D;52004;45.136;39.010;2024-03-02T11:11:15;16.65;50.11
65396;HTU21D;52004;45.136;39.010;2024-03-02T11:17:49;16.58;49.60
65396;HTU21D;52004;45.136;39.010;2024-03-02T11:20:15;16.55;49.44
65396;HTU21D;52004;45.136;39.010;2024-03-02T11:22:41;16.52;49.50
65396;HTU21D;52004;45.136;39.010;2024-03-02T11:25:22;16.54;49.22
65396;HTU21D;52004;45.136;39.010;2024-03-02T11:33:00;16.55;48.96
65396;HTU21D;52004;45.136;39.010;2024-03-02T11:35:26;16.49;48.75
65396;HTU21D;52004;45.136;39.010;2024-03-02T11:37:54;0.00;48.61
65396;HTU21D;52004;45.136;39.010;2024-03-02T11:40:23;16.39;48.52
65396;HTU21D;52004;45.136;39.010;2024-03-02T11:42:49;16.33;48.50
65396;HTU21D;52004;45.136;39.010;2024-03-02T11:45:22;16.31;48.46
65396;HTU21D;52004;45.136;39.010;2024-03-02T11:47:53;16.28;48.34
65396;HTU21D;52004;45.136;39.010;2024-03-02T11:50:49;16.24;48.32
65396;HTU21D;52004;45.136;39.010;2024-03-02T11:53:15;16.17;48.22
65396;HTU21D;52004;45.136;39.010;2024-03-02T11:55:41;16.10;48.21
65396;HTU21D;52004;45.136;39.010;2024-03-02T11:58:12;16.03;48.18
65396;HTU21D;52004;45.136;39.010;2024-03-02T12:00:38;15.96;48.15
65396;HTU21D;52004;45.136;39.010;2024-03-02T12:03:09;15.88;47.79
65396;HTU21D;52004;45.136;39.010;2024-03-02T12:05:37;15.72;48.02
65396;HTU21D;52004;45.136;39.010;2024-03-02T12:08:04;15.65;48.13
65396;HTU21D;52004;45.136;39.010;2024-03-02T12:10:31;15.62;48.24
65396;HTU21D;52004;45.136;39.010;2024-03-02T12:13:00;15.58;48.04
65396;HTU21D;52004;45.136;39.010;2024-03-02T12:15:27;15.46;47.99
65396;HTU21D;52004;45.136;39.010;2024-03-02T12:17:54;15.36;48.05
65396;HTU21D;52004;45.136;39.010;2024-03-02T12:20:20;15.29;48.08
65396;HTU21D;52004;45.136;39.010;2024-03-02T12:22:46;15.23;48.08
65396;HTU21D;52004;45.136;39.010;2024-03-02T12:25:12;15.13;48.18
65396;HTU21D;52004;45.136;39.010;2024-03-02T12:27:39;0.00;48.24
65396;HTU21D;52004;45.136;39.010;2024-03-02T12:30:05;15.07;48.21
65396;HTU21D;52004;45.136;39.010;2024-03-02T12:32:33;15.02;48.19
65396;HTU21D;52004;45.136;39.010;2024-03-02T12:35:00;14.99;48.23
65396;HTU21D;52004;45.136;39.010;2024-03-02T12:37:26;14.99;48.13
65396;HTU21D;52004;45.136;39.010;2024-03-02T12:39:53;14.94;48.02
65396;HTU21D;52004;45.136;39.010;2024-03-02T12:42:19;14.84;48.07
65396;HTU21D;52004;45.136;39.010;2024-03-02T12:44:45;14.80;48.12
65396;HTU21D;52004;45.136;39.010;2024-03-02T12:47:11;14.75;48.11
65396;HTU21D;52004;45.136;39.010;2024-03-02T12:49:39;14.69;48.05
65396;HTU21D;52004;45.136;39.010;2024-03-02T12:52:06;14.63;48.02
65396;HTU21D;52004;45.136;39.010;2024-03-02T12:54:32;14.56;48.04
65396;HTU21D;52004;45.136;39.010;2024-03-02T12:56:58;14.51;48.01
65396;HTU21D;52004;45.136;39.010;2024-03-02T12:59:24;14.40;47.95
65396;HTU21D;52004;45.136;39.010;2024-03-02T13:01:52;14.27;48.05
65396;HTU21D;52004;45.136;39.010;2024-03-02T13:04:22;14.21;48.12
65396;HTU21D;52004;45.136;39.010;2024-03-02T13:06:49;14.12;48.12
65396;HTU21D;52004;45.136;39.010;2024-03-02T13:09:15;14.07;47.96
65396;HTU21D;52004;45.136;39.010;2024-03-02T13:11:41;13.94;48.14
65396;HTU21D;52004;45.136;39.010;2024-03-02T13:14:07;13.83;48.22
65396;HTU21D;52004;45.136;39.010;2024-03-02T13:16:38;13.76;48.33
65396;HTU21D;52004;45.136;39.010;2024-03-02T13:19:09;13.71;48.37
65396;HTU21D;52004;45.136;39.010;2024-03-02T13:21:35;13.71;48.40
65396;HTU21D;52004;45.136;39.010;2024-03-02T13:24:01;13.73;48.34
65396;HTU21D;52004;45.136;39.010;2024-03-02T13:26:27;13.70;48.28
65396;HTU21D;52004;45.136;39.010;2024-03-02T13:28:53;13.64;48.28
65396;HTU21D;52004;45.136;39.010;2024-03-02T13:31:19;13.56;48.35
65396;HTU21D;52004;45.136;39.010;2024-03-02T13:33:45;13.53;48.42
65396;HTU21D;52004;45.136;39.010;2024-03-02T13:36:11;13.53;48.41
65396;HTU21D;52004;45.136;39.010;2024-03-02T13:38:37;13.51;48.39
65396;HTU21D;52004;45.136;39.010;2024-03-02T13:41:03;13.46;48.39
65396;HTU21D;52004;45.136;39.010;2024-03-02T13:43:29;13.40;48.41
65396;HTU21D;52004;45.136;39.010;2024-03-02T13:46:01;13.31;48.44
65396;HTU21D;52004;45.136;39.010;2024-03-02T13:48:27;13.23;48.50
65396;HTU21D;52004;45.136;39.010;2024-03-02T13:50:53;13.16;48.50
65396;HTU21D;52004;45.136;39.010;2024-03-02T13:53:19;13.04;48.57
65396;HTU21D;52004;45.136;39.010;2024-03-02T13:55:45;12.93;48.57
65396;HTU21D;52004;45.136;39.010;2024-03-02T13:58:11;12.85;48.70
65396;HTU21D;52004;45.136;39.010;2024-03-02T14:00:38;12.80;48.71
65396;HTU21D;52004;45.136;39.010;2024-03-02T14:03:04;12.75;48.68
65396;HTU21D;52004;45.136;39.010;2024-03-02T14:05:30;12.69;48.72
65396;HTU21D;52004;45.136;39.010;2024-03-02T14:07:56;0.00;48.65
65396;HTU21D;52004;45.136;39.010;2024-03-02T14:10:22;12.49;48.69
65396;HTU21D;52004;45.136;39.010;2024-03-02T14:12:49;12.41;48.81
65396;HTU21D;52004;45.136;39.010;2024-03-02T14:15:14;12.37;48.84
65396;HTU21D;52004;45.136;39.010;2024-03-02T14:17:40;12.33;48.79
65396;HTU21D;52004;45.136;39.010;2024-03-02T14:20:06;0.00;48.79
65396;HTU21D;52004;45.136;39.010;2024-03-02T14:22:32;12.19;48.85
65396;HTU21D;52004;45.136;39.010;2024-03-02T14:24:59;12.13;48.88
65396;HTU21D;52004;45.136;39.010;2024-03-02T14:27:25;12.11;48.89
65396;HTU21D;52004;45.136;39.010;2024-03-02T14:29:51;12.03;48.80
65396;HTU21D;52004;45.136;39.010;2024-03-02T14:32:17;11.91;48.91
65396;HTU21D;52004;45.136;39.010;2024-03-02T14:34:43;0.00;48.84
65396;HTU21D;52004;45.136;39.010;2024-03-02T14:37:37;11.67;48.91
65396;HTU21D;52004;45.136;39.010;2024-03-02T14:40:03;11.54;48.86
65396;HTU21D;52004;45.136;39.010;2024-03-02T14:42:32;11.37;49.01
65396;HTU21D;52004;45.136;39.010;2024-03-02T14:44:58;11.26;49.10
65396;HTU21D;52004;45.136;39.010;2024-03-02T14:47:23;11.17;49.20
65396;HTU21D;52004;45.136;39.010;2024-03-02T14:49:50;11.11;49.17
65396;HTU21D;52004;45.136;39.010;2024-03-02T14:52:16;11.05;49.13
65396;HTU21D;52004;45.136;39.010;2024-03-02T14:54:44;10.95;49.15
65396;HTU21D;52004;45.136;39.010;2024-03-02T14:57:10;10.85;49.22
65396;HTU21D;52004;45.136;39.010;2024-03-02T14:59:37;10.81;49.21
65396;HTU21D;52004;45.136;39.010;2024-03-02T15:02:03;10.75;49.20
65396;HTU21D;52004;45.136;39.010;2024-03-02T15:04:29;10.69;49.21
65396;HTU21D;52004;45.136;39.010;2024-03-02T15:06:55;10.66;49.18
65396;HTU21D;52004;45.136;39.010;2024-03-02T15:09:21;10.56;49.20
65396;HTU21D;52004;45.136;39.010;2024-03-02T15:11:47;10.41;49.31
65396;HTU21D;52004;45.136;39.010;2024-03-02T15:14:13;10.29;49.44
65396;HTU21D;52004;45.136;39.010;2024-03-02T15:17:04;10.18;49.53
65396;HTU21D;52004;45.136;39.010;2024-03-02T15:19:30;10.10;49.57
65396;HTU21D;52004;45.136;39.010;2024-03-02T15:22:21;10.03;49.58